createdAt,value
2022-12-01T00:02:07.127Z,52.20
2022-12-01T00:04:37.119Z,50.55
2022-12-01T00:07:07.040Z,56.08
2022-12-01T00:09:49.478Z,50.03
2022-12-01T00:12:19.829Z,53.42
2022-12-01T00:15:01.123Z,48.97
2022-12-01T00:17:31.944Z,43.35
2022-12-01T00:20:01.514Z,56.33
2022-12-01T00:22:31.120Z,50.13
2022-12-01T00:25:00.709Z,48.42
2022-12-01T00:27:31.507Z,47.67
2022-12-01T00:30:03.736Z,50.47
2022-12-01T00:32:33.666Z,65.97
2022-12-01T00:35:03.221Z,52.90
2022-12-01T00:37:33.499Z,53.50
2022-12-01T00:40:03.838Z,56.08
2022-12-01T00:42:33.801Z,57.17
2022-12-01T00:45:06.554Z,57.58
2022-12-01T00:47:36.164Z,50.67
2022-12-01T00:50:06.025Z,48.92
2022-12-01T00:52:35.977Z,56.65
2022-12-01T00:55:05.892Z,56.90
2022-12-01T00:57:35.754Z,52.58
2022-12-01T01:00:09.662Z,48.30
2022-12-01T01:02:41.784Z,58.85
2022-12-01T01:05:12.278Z,48.80
2022-12-01T01:07:41.959Z,56.95
2022-12-01T01:10:12.744Z,52.67
2022-12-01T01:12:42.329Z,53.17
2022-12-01T01:15:14.802Z,69.10
2022-12-01T01:17:44.483Z,67.47
2022-12-01T01:20:15.109Z,64.70
2022-12-01T01:22:44.879Z,55.25
2022-12-01T01:25:14.496Z,64.95
2022-12-01T01:27:44.117Z,62.83
2022-12-01T01:30:17.252Z,74.90
2022-12-01T01:32:47.026Z,74.65
2022-12-01T01:35:16.704Z,81.35
2022-12-01T01:37:46.352Z,71.18
2022-12-01T01:40:15.999Z,74.60
2022-12-01T01:42:45.683Z,75.20
2022-12-01T01:45:31.726Z,68.32
2022-12-01T01:48:04.487Z,73.57
2022-12-01T01:50:34.927Z,85.35
2022-12-01T01:53:07.089Z,81.28
2022-12-01T01:55:38.496Z,85.70
2022-12-01T01:58:11.570Z,86.22
2022-12-01T02:00:47.386Z,97.50
2022-12-01T02:03:21.186Z,71.63
2022-12-01T02:08:20.332Z,81.43
2022-12-01T02:11:10.816Z,89.93
2022-12-01T02:13:51.476Z,92.55
2022-12-01T02:16:34.371Z,90.22
2022-12-01T02:19:23.695Z,98.38
2022-12-01T02:22:06.236Z,80.80
2022-12-01T02:25:07.144Z,84.13
2022-12-01T02:27:56.485Z,79.05
2022-12-01T02:30:40.393Z,84.60
2022-12-01T02:35:48.994Z,90.13
2022-12-01T02:38:27.318Z,83.70
2022-12-01T02:41:04.381Z,89.35
2022-12-01T02:43:38.619Z,82.68
2022-12-01T02:46:15.495Z,81.30
2022-12-01T02:48:51.147Z,72.05
2022-12-01T02:51:24.205Z,66.90
2022-12-01T02:53:55.109Z,68.95
2022-12-01T02:56:26.005Z,70.93
2022-12-01T02:58:55.630Z,58.75
2022-12-01T03:01:52.293Z,75.80
2022-12-01T03:04:35.374Z,70.35
2022-12-01T03:07:15.722Z,68.30
2022-12-01T03:09:58.910Z,82.80
2022-12-01T03:12:37.466Z,66.40
2022-12-01T03:15:13.841Z,87.65
2022-12-01T03:17:52.205Z,84.95
2022-12-01T03:20:27.894Z,74.65
2022-12-01T03:23:04.344Z,74.15
2022-12-01T03:25:34.986Z,95.00
2022-12-01T03:28:22.441Z,85.50
2022-12-01T03:30:55.648Z,68.00
2022-12-01T03:33:32.570Z,81.23
2022-12-01T03:36:06.035Z,66.53
2022-12-01T03:38:39.235Z,78.28
2022-12-01T03:41:16.181Z,69.85
2022-12-01T03:43:53.544Z,64.93
2022-12-01T03:46:30.792Z,58.92
2022-12-01T03:49:03.940Z,65.30
2022-12-01T03:51:37.644Z,58.33
2022-12-01T03:54:13.260Z,60.70
2022-12-01T03:56:50.084Z,52.50
2022-12-01T03:59:23.276Z,72.05
2022-12-01T04:01:53.323Z,66.72
2022-12-01T04:04:25.578Z,54.38
2022-12-01T04:06:55.944Z,58.05
2022-12-01T04:09:25.691Z,68.13
2022-12-01T04:12:07.685Z,57.35
2022-12-01T04:14:37.410Z,78.68
2022-12-01T04:17:06.983Z,79.65
2022-12-01T04:19:39.153Z,68.38
2022-12-01T04:22:08.739Z,78.15
2022-12-01T04:24:38.303Z,62.67
2022-12-01T04:27:07.827Z,70.90
2022-12-01T04:29:37.523Z,75.13
2022-12-01T04:32:07.504Z,59.05
2022-12-01T04:34:39.904Z,53.05
2022-12-01T04:37:12.174Z,71.10
2022-12-01T04:39:42.220Z,67.80
2022-12-01T04:42:12.837Z,71.55
2022-12-01T04:44:42.773Z,68.55
2022-12-01T04:47:12.350Z,81.75
2022-12-01T04:49:44.629Z,62.67
2022-12-01T04:52:14.255Z,72.47
2022-12-01T04:54:43.914Z,74.22
2022-12-01T04:57:13.484Z,82.55
2022-12-01T04:59:43.050Z,59.85
2022-12-01T05:02:12.852Z,79.70
2022-12-01T05:04:48.094Z,64.45
2022-12-01T05:07:18.249Z,63.70
2022-12-01T05:09:48.240Z,76.03
2022-12-01T05:12:18.542Z,58.25
2022-12-01T05:14:48.825Z,56.50
2022-12-01T05:17:18.414Z,69.30
2022-12-01T05:20:03.202Z,71.70
2022-12-01T05:23:03.983Z,71.28
2022-12-01T05:25:22.568Z,66.10
2022-12-01T05:27:52.141Z,55.92
2022-12-01T05:30:25.625Z,75.35
2022-12-01T05:32:58.192Z,72.75
2022-12-01T05:35:30.726Z,75.70
2022-12-01T05:38:06.048Z,71.03
2022-12-01T05:40:37.518Z,65.18
2022-12-01T05:43:07.498Z,80.85
2022-12-01T05:45:37.539Z,68.38
2022-12-01T05:48:07.516Z,69.05
2022-12-01T05:50:41.898Z,64.55
2022-12-01T05:53:14.176Z,71.80
2022-12-01T05:55:44.383Z,62.67
2022-12-01T05:58:14.818Z,69.20
2022-12-01T06:00:46.313Z,64.85
2022-12-01T06:03:16.192Z,58.25
2022-12-01T06:05:48.679Z,63.05
2022-12-01T06:08:18.269Z,53.13
2022-12-01T06:10:47.898Z,74.07
2022-12-01T06:13:17.440Z,66.90
2022-12-01T06:15:47.294Z,67.55
2022-12-01T06:18:16.878Z,75.85
2022-12-01T06:20:49.146Z,81.05
2022-12-01T06:23:18.791Z,84.47
2022-12-01T06:25:48.512Z,70.68
2022-12-01T06:28:18.325Z,67.90
2022-12-01T06:30:48.386Z,80.00
2022-12-01T06:33:18.055Z,69.15
2022-12-01T06:35:50.227Z,78.53
2022-12-01T06:38:19.746Z,73.10
2022-12-01T06:40:49.321Z,81.18
2022-12-01T06:43:18.821Z,82.80
2022-12-01T06:45:48.465Z,82.97
2022-12-01T06:48:18.148Z,71.22
2022-12-01T06:50:50.304Z,73.25
2022-12-01T06:53:19.897Z,76.45
2022-12-01T06:55:49.489Z,93.93
2022-12-01T06:58:19.314Z,82.38
2022-12-01T07:00:52.270Z,92.10
2022-12-01T07:03:22.214Z,87.10
2022-12-01T07:06:00.982Z,75.18
2022-12-01T07:08:32.046Z,66.65
2022-12-01T07:11:02.646Z,64.93
2022-12-01T07:13:33.989Z,74.50
2022-12-01T07:16:04.166Z,72.75
2022-12-01T07:18:34.549Z,82.15
2022-12-01T07:21:08.832Z,82.55
2022-12-01T07:23:38.980Z,81.50
2022-12-01T07:26:10.746Z,66.00
2022-12-01T07:28:40.474Z,77.88
2022-12-01T07:31:12.579Z,72.53
2022-12-01T07:33:42.800Z,73.00
2022-12-01T07:36:16.152Z,77.05
2022-12-01T07:38:46.170Z,80.28
2022-12-01T07:41:19.203Z,72.90
2022-12-01T07:43:49.910Z,67.35
2022-12-01T07:46:23.807Z,70.90
2022-12-01T07:48:55.888Z,91.28
2022-12-01T07:51:29.014Z,71.55
2022-12-01T07:53:58.866Z,82.90
2022-12-01T07:56:28.486Z,82.60
2022-12-01T07:58:58.376Z,94.53
2022-12-01T08:01:28.667Z,74.10
2022-12-01T08:04:00.405Z,72.88
2022-12-01T08:06:32.909Z,88.00
2022-12-01T08:09:02.609Z,87.13
2022-12-01T08:11:32.276Z,79.55
2022-12-01T08:14:01.897Z,96.32
2022-12-01T08:16:31.608Z,100.20
2022-12-01T08:19:01.391Z,87.03
2022-12-01T08:21:33.927Z,92.93
2022-12-01T08:24:03.480Z,87.45
2022-12-01T08:26:33.674Z,95.50
2022-12-01T08:29:03.430Z,89.07
2022-12-01T08:31:36.777Z,89.75
2022-12-01T08:34:07.861Z,84.93
2022-12-01T08:36:40.094Z,93.90
2022-12-01T08:39:11.289Z,88.40
2022-12-01T08:41:40.888Z,85.03
2022-12-01T08:44:12.212Z,74.30
2022-12-01T08:46:41.939Z,82.38
2022-12-01T08:49:11.552Z,81.93
2022-12-01T08:51:43.835Z,90.13
2022-12-01T08:54:15.173Z,80.68
2022-12-01T08:56:47.923Z,85.82
2022-12-01T08:59:17.872Z,72.95
2022-12-01T09:01:57.493Z,88.18
2022-12-01T09:04:29.551Z,86.88
2022-12-01T09:07:01.757Z,83.78
2022-12-01T09:09:32.082Z,91.05
2022-12-01T09:12:01.747Z,93.80
2022-12-01T09:14:31.296Z,91.03
2022-12-01T09:17:00.926Z,85.45
2022-12-01T09:19:31.321Z,97.38
2022-12-01T09:22:03.599Z,95.45
2022-12-01T09:24:33.674Z,103.15
2022-12-01T09:27:03.719Z,104.63
2022-12-01T09:29:34.026Z,94.68
2022-12-01T09:32:03.997Z,94.07
2022-12-01T09:34:33.947Z,91.03
2022-12-01T09:37:06.963Z,99.10
2022-12-01T09:39:36.653Z,95.88
2022-12-01T09:42:10.827Z,92.45
2022-12-01T09:44:44.669Z,101.57
2022-12-01T09:47:22.066Z,99.65
2022-12-01T09:50:01.779Z,97.03
2022-12-01T09:55:17.164Z,103.55
2022-12-01T09:57:50.459Z,99.20
2022-12-01T10:00:22.830Z,99.95
2022-12-01T10:02:57.585Z,93.00
2022-12-01T10:05:33.411Z,90.32
2022-12-01T10:08:08.802Z,96.10
2022-12-01T10:10:42.465Z,92.50
2022-12-01T10:13:20.983Z,82.80
2022-12-01T10:15:57.726Z,81.55
2022-12-01T10:18:43.717Z,82.95
2022-12-01T10:21:19.397Z,89.45
2022-12-01T10:24:08.392Z,91.20
2022-12-01T10:26:47.423Z,87.88
2022-12-01T10:29:26.328Z,87.75
2022-12-01T10:31:58.420Z,93.13
2022-12-01T10:34:32.010Z,95.22
2022-12-01T10:37:02.150Z,91.53
2022-12-01T10:39:37.723Z,91.28
2022-12-01T10:42:10.481Z,83.88
2022-12-01T10:44:40.472Z,79.38
2022-12-01T10:47:20.054Z,86.03
2022-12-01T10:49:50.799Z,78.93
2022-12-01T10:55:31.860Z,69.95
2022-12-01T10:58:09.314Z,74.13
2022-12-01T11:00:59.224Z,75.63
2022-12-01T11:03:32.096Z,71.30
2022-12-01T11:06:04.051Z,68.30
2022-12-01T11:08:41.912Z,62.97
2022-12-01T11:11:27.957Z,71.90
2022-12-01T11:13:58.484Z,61.00
2022-12-01T11:16:40.149Z,68.95
2022-12-01T11:19:27.812Z,67.43
2022-12-01T11:21:59.843Z,65.68
2022-12-01T11:24:48.319Z,59.55
2022-12-01T11:27:23.848Z,64.32
2022-12-01T11:29:56.155Z,63.63
2022-12-01T11:32:28.693Z,56.08
2022-12-01T11:35:02.585Z,69.00
2022-12-01T11:37:36.049Z,61.95
2022-12-01T11:40:12.762Z,57.70
2022-12-01T11:42:50.310Z,54.42
2022-12-01T11:45:37.343Z,58.33
2022-12-01T11:48:10.459Z,51.63
2022-12-01T11:50:42.637Z,64.90
2022-12-01T11:53:30.070Z,61.38
2022-12-01T11:56:17.568Z,50.95
2022-12-01T11:58:51.978Z,55.13
2022-12-01T12:01:34.070Z,48.40
2022-12-01T12:04:19.856Z,51.00
2022-12-01T12:06:58.858Z,43.53
2022-12-01T12:09:52.005Z,53.58
2022-12-01T12:12:35.610Z,49.25
2022-12-01T12:15:21.056Z,46.35
2022-12-01T12:18:05.661Z,51.97
2022-12-01T12:20:54.430Z,53.80
2022-12-01T12:23:42.934Z,50.75
2022-12-01T12:26:24.547Z,48.25
2022-12-01T12:29:13.825Z,42.15
2022-12-01T12:32:03.978Z,43.85
2022-12-01T12:34:47.525Z,42.60
2022-12-01T12:37:29.516Z,44.75
2022-12-01T12:40:23.299Z,41.65
2022-12-01T12:43:06.716Z,42.63
2022-12-01T12:45:50.653Z,38.47
2022-12-01T12:48:38.742Z,46.55
2022-12-01T12:51:25.463Z,48.25
2022-12-01T12:54:16.108Z,40.08
2022-12-01T12:56:49.417Z,41.58
2022-12-01T12:59:24.619Z,47.13
2022-12-01T13:02:02.425Z,44.83
2022-12-01T13:04:44.964Z,44.75
2022-12-01T13:07:28.573Z,50.63
2022-12-01T13:10:04.108Z,46.90
2022-12-01T13:12:39.549Z,50.17
2022-12-01T13:15:19.119Z,50.28
2022-12-01T13:17:53.560Z,51.10
2022-12-01T13:20:29.000Z,45.15
2022-12-01T13:23:01.011Z,44.72
2022-12-01T13:25:35.272Z,42.60
2022-12-01T13:28:09.303Z,44.75
2022-12-01T13:30:38.965Z,43.97
2022-12-01T13:33:09.993Z,41.58
2022-12-01T13:35:42.973Z,41.97
2022-12-01T13:38:24.915Z,47.63
2022-12-01T13:41:13.433Z,48.22
2022-12-01T13:43:55.730Z,51.53
2022-12-01T13:46:27.865Z,49.97
2022-12-01T13:48:59.617Z,44.60
2022-12-01T13:52:07.089Z,50.40
2022-12-01T13:54:38.978Z,54.92
2022-12-01T13:57:15.082Z,45.88
2022-12-01T14:00:08.199Z,48.80
2022-12-01T14:02:39.359Z,48.92
2022-12-01T14:05:51.286Z,41.70
2022-12-01T14:08:28.148Z,49.58
2022-12-01T14:11:00.762Z,45.10
2022-12-01T14:13:32.405Z,46.88
2022-12-01T14:16:05.684Z,44.00
2022-12-01T14:18:38.668Z,45.45
2022-12-01T14:21:11.245Z,43.87
2022-12-01T14:24:02.845Z,45.90
2022-12-01T14:26:34.921Z,46.03
2022-12-01T14:29:29.814Z,45.92
2022-12-01T14:32:28.528Z,43.85
2022-12-01T14:35:10.353Z,41.65
2022-12-01T14:37:46.569Z,41.72
2022-12-01T14:40:27.680Z,44.05
2022-12-01T14:43:12.941Z,42.47
2022-12-01T14:45:48.682Z,45.13
2022-12-01T14:48:24.529Z,47.63
2022-12-01T14:51:01.413Z,44.95
2022-12-01T14:53:34.800Z,43.17
2022-12-01T14:56:16.303Z,40.78
2022-12-01T14:58:54.946Z,40.00
2022-12-01T15:01:26.252Z,40.95
2022-12-01T15:04:01.095Z,43.55
2022-12-01T15:06:32.785Z,41.53
2022-12-01T15:09:32.836Z,38.10
2022-12-01T15:12:04.986Z,37.13
2022-12-01T15:17:53.077Z,39.95
2022-12-01T15:20:33.964Z,31.20
2022-12-01T15:23:05.495Z,37.22
2022-12-01T15:25:37.218Z,43.20
2022-12-01T15:28:16.150Z,35.78
2022-12-01T15:30:48.247Z,37.17
2022-12-01T15:33:27.643Z,39.17
2022-12-01T15:35:59.512Z,38.17
2022-12-01T15:38:32.789Z,36.88
2022-12-01T15:44:03.587Z,35.83
2022-12-01T15:46:35.301Z,35.72
2022-12-01T15:49:11.628Z,32.75
2022-12-01T15:51:41.493Z,33.00
2022-12-01T15:54:22.172Z,29.25
2022-12-01T15:56:56.672Z,35.22
2022-12-01T15:59:36.626Z,40.03
2022-12-01T16:02:27.008Z,36.45
2022-12-01T16:05:05.229Z,31.77
2022-12-01T16:08:11.480Z,39.15
2022-12-01T16:10:32.751Z,35.10
2022-12-01T16:13:32.785Z,39.05
2022-12-01T16:16:23.090Z,43.88
2022-12-01T16:18:58.379Z,44.78
2022-12-01T16:21:28.797Z,37.92
2022-12-01T16:24:03.554Z,38.90
2022-12-01T16:26:34.686Z,39.15
2022-12-01T16:29:04.892Z,39.55
2022-12-01T16:31:52.624Z,40.25
2022-12-01T16:34:45.152Z,32.78
2022-12-01T16:37:15.561Z,37.78
2022-12-01T16:39:45.437Z,36.65
2022-12-01T16:42:16.976Z,34.60
2022-12-01T16:44:48.361Z,35.83
2022-12-01T16:49:58.080Z,35.10
2022-12-01T16:52:44.547Z,41.95
2022-12-01T16:55:39.056Z,41.53
2022-12-01T16:58:08.683Z,40.38
2022-12-01T17:00:38.852Z,36.92
2022-12-01T17:03:13.994Z,37.45
2022-12-01T17:05:43.784Z,35.70
2022-12-01T17:08:13.834Z,48.83
2022-12-01T17:10:45.656Z,42.13
2022-12-01T17:13:16.272Z,38.28
2022-12-01T17:15:47.183Z,44.92
2022-12-01T17:18:21.326Z,40.17
2022-12-01T17:21:00.050Z,44.25
2022-12-01T17:23:30.007Z,36.20
2022-12-01T17:25:59.638Z,53.85
2022-12-01T17:28:33.171Z,43.70
2022-12-01T17:31:03.407Z,47.92
2022-12-01T17:33:37.329Z,45.47
2022-12-01T17:36:09.396Z,53.17
2022-12-01T17:38:40.317Z,41.40
2022-12-01T17:44:15.683Z,39.63
2022-12-01T17:46:45.525Z,38.30
2022-12-01T17:49:17.934Z,42.08
2022-12-01T17:51:48.405Z,40.53
2022-12-01T17:54:18.123Z,37.75
2022-12-01T17:56:48.296Z,39.45
2022-12-01T17:59:18.073Z,32.55
2022-12-01T18:01:48.394Z,40.65
2022-12-01T18:04:44.822Z,39.42
2022-12-01T18:07:15.385Z,40.78
2022-12-01T18:09:45.369Z,40.13
2022-12-01T18:12:14.995Z,34.42
2022-12-01T18:14:44.628Z,35.25
2022-12-01T18:17:14.276Z,37.05
2022-12-01T18:19:46.866Z,38.00
2022-12-01T18:22:16.734Z,35.15
2022-12-01T18:24:46.633Z,34.42
2022-12-01T18:27:16.336Z,36.25
2022-12-01T18:29:46.188Z,36.63
2022-12-01T18:32:16.762Z,45.35
2022-12-01T18:34:49.666Z,40.42
2022-12-01T18:37:19.854Z,40.67
2022-12-01T18:39:49.707Z,34.30
2022-12-01T18:42:19.583Z,38.90
2022-12-01T18:44:50.007Z,37.08
2022-12-01T18:47:19.836Z,42.33
2022-12-01T18:49:52.254Z,36.83
2022-12-01T18:52:21.921Z,36.72
2022-12-01T18:54:51.835Z,38.80
2022-12-01T18:57:21.840Z,36.92
2022-12-01T18:59:51.389Z,38.20
2022-12-01T19:02:21.186Z,37.72
2022-12-01T19:04:53.460Z,43.78
2022-12-01T19:07:29.378Z,40.15
2022-12-01T19:09:59.621Z,40.47
2022-12-01T19:12:29.458Z,41.65
2022-12-01T19:14:59.205Z,42.88
2022-12-01T19:17:28.785Z,44.05
2022-12-01T19:20:01.402Z,39.33
2022-12-01T19:22:31.163Z,38.28
2022-12-01T19:25:01.099Z,42.63
2022-12-01T19:27:31.897Z,42.30
2022-12-01T19:30:01.900Z,37.83
2022-12-01T19:32:33.931Z,46.42
2022-12-01T19:35:06.391Z,48.05
2022-12-01T19:37:36.010Z,44.00
2022-12-01T19:40:05.690Z,51.25
2022-12-01T19:42:35.294Z,50.55
2022-12-01T19:45:04.883Z,49.28
2022-12-01T19:47:34.949Z,42.72
2022-12-01T19:50:08.207Z,46.33
2022-12-01T19:52:41.416Z,46.80
2022-12-01T19:55:11.969Z,57.05
2022-12-01T19:57:41.604Z,52.75
2022-12-01T20:00:12.855Z,43.30
2022-12-01T20:02:42.573Z,51.95
2022-12-01T20:05:14.968Z,43.45
2022-12-01T20:07:44.781Z,49.05
2022-12-01T20:10:15.038Z,52.30
2022-12-01T20:12:44.775Z,56.30
2022-12-01T20:15:14.461Z,53.20
2022-12-01T20:17:44.373Z,56.10
2022-12-01T20:20:17.805Z,62.45
2022-12-01T20:22:47.449Z,60.75
2022-12-01T20:25:17.199Z,50.60
2022-12-01T20:27:47.284Z,54.78
2022-12-01T20:30:18.064Z,44.45
2022-12-01T20:32:47.735Z,47.22
2022-12-01T20:35:20.260Z,50.20
2022-12-01T20:37:50.229Z,49.83
2022-12-01T20:40:20.151Z,44.72
2022-12-01T20:42:50.086Z,54.15
2022-12-01T20:45:20.066Z,55.97
2022-12-01T20:47:50.085Z,46.75
2022-12-01T20:50:22.315Z,53.03
2022-12-01T20:52:51.965Z,43.17
2022-12-01T20:55:21.990Z,45.72
2022-12-01T20:57:51.859Z,53.45
2022-12-01T21:00:22.459Z,50.25
2022-12-01T21:02:52.234Z,43.97
2022-12-01T21:05:24.527Z,43.05
2022-12-01T21:07:54.269Z,47.53
2022-12-01T21:10:24.213Z,43.17
2022-12-01T21:13:12.248Z,48.75
2022-12-01T21:15:57.328Z,45.92
2022-12-01T21:18:36.080Z,41.65
2022-12-01T21:21:23.358Z,39.83
2022-12-01T21:24:11.162Z,44.45
2022-12-01T21:26:42.401Z,43.08
2022-12-01T21:29:30.943Z,50.50
2022-12-01T21:32:03.315Z,36.78
2022-12-01T21:34:36.481Z,47.22
2022-12-01T21:37:17.224Z,48.60
2022-12-01T21:39:48.534Z,55.80
2022-12-01T21:42:21.114Z,45.33
2022-12-01T21:44:51.737Z,43.35
2022-12-01T21:50:00.806Z,49.50
2022-12-01T21:52:37.409Z,47.85
2022-12-01T21:55:33.254Z,46.75
2022-12-01T21:58:02.887Z,52.58
2022-12-01T22:00:34.691Z,52.08
2022-12-01T22:03:19.861Z,44.08
2022-12-01T22:06:21.417Z,48.42
2022-12-01T22:08:47.606Z,45.90
2022-12-01T22:11:22.029Z,50.47
2022-12-01T22:13:56.253Z,49.45
2022-12-01T22:16:36.651Z,46.42
2022-12-01T22:19:30.687Z,47.60
2022-12-01T22:22:05.743Z,41.97
2022-12-01T22:24:46.943Z,45.88
2022-12-01T22:27:30.696Z,45.70
2022-12-01T22:30:03.152Z,46.40
2022-12-01T22:33:03.864Z,46.35
2022-12-01T22:35:39.078Z,51.30
2022-12-01T22:38:24.996Z,45.35
2022-12-01T22:41:03.614Z,54.45
2022-12-01T22:43:48.340Z,52.28
2022-12-01T22:46:34.242Z,41.78
2022-12-01T22:49:18.015Z,45.47
2022-12-01T22:51:50.796Z,44.08
2022-12-01T22:54:32.528Z,43.97
2022-12-01T22:57:14.497Z,41.47
2022-12-01T22:59:47.807Z,44.47
2022-12-01T23:02:23.951Z,42.90
2022-12-01T23:04:58.472Z,42.65
2022-12-01T23:07:33.703Z,47.47
2022-12-01T23:10:17.171Z,48.80
2022-12-01T23:12:51.367Z,50.03
2022-12-01T23:15:28.395Z,48.13
2022-12-01T23:17:58.177Z,53.63
2022-12-01T23:20:35.566Z,54.25
2022-12-01T23:23:10.651Z,46.00
2022-12-01T23:25:40.426Z,56.55
2022-12-01T23:28:14.822Z,50.45
2022-12-01T23:30:46.946Z,49.28
2022-12-01T23:33:21.521Z,53.05
2022-12-01T23:35:54.675Z,51.22
2022-12-01T23:38:27.790Z,52.40
2022-12-01T23:41:01.712Z,56.85
2022-12-01T23:43:37.573Z,56.10
2022-12-01T23:46:09.907Z,57.58
2022-12-01T23:48:43.525Z,57.92
2022-12-01T23:51:20.856Z,56.30
2022-12-01T23:53:50.872Z,59.63
2022-12-01T23:56:23.108Z,54.53
2022-12-01T23:58:57.436Z,58.83
